createdAt,value
2023-01-07T00:00:17.047Z,1009.94
2023-01-07T00:00:49.544Z,1009.96
2023-01-07T00:01:22.069Z,1009.92
2023-01-07T00:01:54.551Z,1009.93
2023-01-07T00:02:27.073Z,1009.92
2023-01-07T00:02:59.576Z,1009.93
2023-01-07T00:03:32.044Z,1009.92
2023-01-07T00:04:04.676Z,1009.92
2023-01-07T00:04:37.093Z,1009.91
2023-01-07T00:05:09.627Z,1009.91
2023-01-07T00:05:42.239Z,1009.91
2023-01-07T00:06:14.766Z,1009.91
2023-01-07T00:06:47.414Z,1009.90
2023-01-07T00:07:19.812Z,1009.92
2023-01-07T00:07:52.359Z,1009.90
2023-01-07T00:08:24.898Z,1009.89
2023-01-07T00:08:57.421Z,1009.88
2023-01-07T00:09:29.939Z,1009.89
2023-01-07T00:10:02.496Z,1009.88
2023-01-07T00:10:35.027Z,1009.86
2023-01-07T00:11:07.548Z,1009.86
2023-01-07T00:11:40.203Z,1009.86
2023-01-07T00:12:12.705Z,1009.84
2023-01-07T00:12:45.215Z,1009.84
2023-01-07T00:13:17.698Z,1009.85
2023-01-07T00:13:50.197Z,1009.87
2023-01-07T00:14:22.709Z,1009.87
2023-01-07T00:14:55.263Z,1009.83
2023-01-07T00:15:27.798Z,1009.84
2023-01-07T00:16:00.443Z,1009.83
2023-01-07T00:16:32.849Z,1009.84
2023-01-07T00:17:05.372Z,1009.85
2023-01-07T00:17:37.887Z,1009.81
2023-01-07T00:18:10.427Z,1009.82
2023-01-07T00:18:43.112Z,1009.79
2023-01-07T00:19:15.637Z,1009.79
2023-01-07T00:19:48.316Z,1009.78
2023-01-07T00:20:20.858Z,1009.79
2023-01-07T00:20:53.378Z,1009.78
2023-01-07T00:21:25.872Z,1009.81
2023-01-07T00:21:58.369Z,1009.79
2023-01-07T00:22:30.889Z,1009.80
2023-01-07T00:23:03.442Z,1009.80
2023-01-07T00:23:35.928Z,1009.79
2023-01-07T00:24:08.448Z,1009.79
2023-01-07T00:24:41.031Z,1009.80
2023-01-07T00:25:13.551Z,1009.79
2023-01-07T00:25:46.077Z,1009.79
2023-01-07T00:26:18.618Z,1009.75
2023-01-07T00:26:51.141Z,1009.79
2023-01-07T00:27:23.678Z,1009.78
2023-01-07T00:27:56.189Z,1009.76
2023-01-07T00:28:28.687Z,1009.75
2023-01-07T00:29:01.200Z,1009.77
2023-01-07T00:29:33.725Z,1009.75
2023-01-07T00:30:06.207Z,1009.75
2023-01-07T00:30:38.718Z,1009.78
2023-01-07T00:31:11.291Z,1009.80
2023-01-07T00:31:43.852Z,1009.79
2023-01-07T00:32:16.241Z,1009.76
2023-01-07T00:32:48.731Z,1009.76
2023-01-07T00:33:21.281Z,1009.77
2023-01-07T00:33:53.821Z,1009.79
2023-01-07T00:34:26.329Z,1009.75
2023-01-07T00:34:58.756Z,1009.76
2023-01-07T00:35:31.284Z,1009.75
2023-01-07T00:36:03.937Z,1009.76
2023-01-07T00:36:36.435Z,1009.75
2023-01-07T00:37:08.921Z,1009.76
2023-01-07T00:37:41.416Z,1009.74
2023-01-07T00:38:13.917Z,1009.73
2023-01-07T00:38:46.468Z,1009.72
2023-01-07T00:39:18.964Z,1009.73
2023-01-07T00:39:51.451Z,1009.72
2023-01-07T00:40:23.969Z,1009.71
2023-01-07T00:40:56.469Z,1009.71
2023-01-07T00:41:28.982Z,1009.74
2023-01-07T00:42:01.469Z,1009.71
2023-01-07T00:42:33.984Z,1009.73
2023-01-07T00:43:06.508Z,1009.72
2023-01-07T00:43:38.998Z,1009.69
2023-01-07T00:44:11.504Z,1009.67
2023-01-07T00:44:43.985Z,1009.71
2023-01-07T00:45:16.588Z,1009.68
2023-01-07T00:45:49.191Z,1009.70
2023-01-07T00:46:21.773Z,1009.69
2023-01-07T00:46:54.242Z,1009.67
2023-01-07T00:47:26.722Z,1009.66
2023-01-07T00:47:59.345Z,1009.65
2023-01-07T00:48:31.816Z,1009.63
2023-01-07T00:49:04.517Z,1009.66
2023-01-07T00:49:37.049Z,1009.66
2023-01-07T00:50:09.557Z,1009.66
2023-01-07T00:50:42.098Z,1009.67
2023-01-07T00:51:14.561Z,1009.66
2023-01-07T00:51:47.154Z,1009.67
2023-01-07T00:52:19.700Z,1009.67
2023-01-07T00:52:52.199Z,1009.67
2023-01-07T00:53:24.711Z,1009.66
2023-01-07T00:53:57.204Z,1009.66
2023-01-07T00:54:29.710Z,1009.65
2023-01-07T00:55:02.253Z,1009.64
2023-01-07T00:55:34.780Z,1009.66
2023-01-07T00:56:07.360Z,1009.66
2023-01-07T00:56:39.938Z,1009.65
2023-01-07T00:57:12.504Z,1009.66
2023-01-07T00:57:45.028Z,1009.65
2023-01-07T00:58:17.545Z,1009.64
2023-01-07T00:58:50.059Z,1009.63
2023-01-07T00:59:22.578Z,1009.62
2023-01-07T00:59:55.099Z,1009.61
2023-01-07T01:00:27.597Z,1009.62
2023-01-07T01:01:00.250Z,1009.60
2023-01-07T01:01:32.751Z,1009.59
2023-01-07T01:02:05.257Z,1009.59
2023-01-07T01:02:37.727Z,1009.58
2023-01-07T01:03:10.253Z,1009.60
2023-01-07T01:03:42.768Z,1009.59
2023-01-07T01:04:15.245Z,1009.59
2023-01-07T01:04:47.797Z,1009.57
2023-01-07T01:05:20.282Z,1009.55
2023-01-07T01:05:52.792Z,1009.53
2023-01-07T01:06:25.295Z,1009.58
2023-01-07T01:06:57.798Z,1009.54
2023-01-07T01:07:30.277Z,1009.52
2023-01-07T01:08:02.755Z,1009.51
2023-01-07T01:08:35.267Z,1009.51
2023-01-07T01:09:07.777Z,1009.51
2023-01-07T01:09:40.337Z,1009.51
2023-01-07T01:10:12.840Z,1009.51
2023-01-07T01:10:45.398Z,1009.49
2023-01-07T01:11:17.893Z,1009.47
2023-01-07T01:11:50.457Z,1009.47
2023-01-07T01:12:22.958Z,1009.46
2023-01-07T01:12:55.427Z,1009.47
2023-01-07T01:13:27.976Z,1009.46
2023-01-07T01:14:00.549Z,1009.45
2023-01-07T01:14:33.059Z,1009.44
2023-01-07T01:15:05.575Z,1009.44
2023-01-07T01:15:38.108Z,1009.47
2023-01-07T01:16:10.648Z,1009.45
2023-01-07T01:16:43.252Z,1009.44
2023-01-07T01:17:15.734Z,1009.42
2023-01-07T01:17:48.306Z,1009.43
2023-01-07T01:18:20.869Z,1009.49
2023-01-07T01:18:53.364Z,1009.44
2023-01-07T01:19:25.868Z,1009.45
2023-01-07T01:19:58.317Z,1009.44
2023-01-07T01:20:30.883Z,1009.44
2023-01-07T01:21:03.396Z,1009.45
2023-01-07T01:21:35.933Z,1009.44
2023-01-07T01:22:08.428Z,1009.44
2023-01-07T01:22:40.939Z,1009.43
2023-01-07T01:23:13.574Z,1009.45
2023-01-07T01:23:46.117Z,1009.44
2023-01-07T01:24:18.662Z,1009.44
2023-01-07T01:24:51.196Z,1009.45
2023-01-07T01:25:23.672Z,1009.44
2023-01-07T01:25:56.188Z,1009.42
2023-01-07T01:26:28.727Z,1009.44
2023-01-07T01:27:01.235Z,1009.44
2023-01-07T01:27:33.771Z,1009.44
2023-01-07T01:28:06.263Z,1009.42
2023-01-07T01:28:38.741Z,1009.44
2023-01-07T01:29:11.227Z,1009.45
2023-01-07T01:29:43.757Z,1009.42
2023-01-07T01:30:16.279Z,1009.42
2023-01-07T01:30:48.775Z,1009.45
2023-01-07T01:31:21.332Z,1009.43
2023-01-07T01:31:53.815Z,1009.43
2023-01-07T01:32:26.296Z,1009.42
2023-01-07T01:32:58.814Z,1009.44
2023-01-07T01:33:31.382Z,1009.43
2023-01-07T01:34:03.868Z,1009.43
2023-01-07T01:34:36.441Z,1009.44
2023-01-07T01:35:08.899Z,1009.42
2023-01-07T01:35:41.457Z,1009.43
2023-01-07T01:36:13.954Z,1009.41
2023-01-07T01:36:46.733Z,1009.44
2023-01-07T01:37:19.262Z,1009.42
2023-01-07T01:37:51.893Z,1009.42
2023-01-07T01:38:24.364Z,1009.43
2023-01-07T01:38:56.866Z,1009.44
2023-01-07T01:39:29.476Z,1009.42
2023-01-07T01:40:02.004Z,1009.44
2023-01-07T01:40:34.524Z,1009.44
2023-01-07T01:41:07.037Z,1009.44
2023-01-07T01:41:39.682Z,1009.41
2023-01-07T01:42:12.178Z,1009.42
2023-01-07T01:42:44.790Z,1009.42
2023-01-07T01:43:17.325Z,1009.41
2023-01-07T01:43:49.844Z,1009.41
2023-01-07T01:44:22.329Z,1009.42
2023-01-07T01:44:54.861Z,1009.45
2023-01-07T01:45:27.347Z,1009.46
2023-01-07T01:45:59.922Z,1009.45
2023-01-07T01:46:32.516Z,1009.40
2023-01-07T01:47:05.027Z,1009.42
2023-01-07T01:47:37.507Z,1009.39
2023-01-07T01:48:10.055Z,1009.41
2023-01-07T01:48:42.595Z,1009.42
2023-01-07T01:49:15.098Z,1009.41
2023-01-07T01:49:47.623Z,1009.41
2023-01-07T01:50:20.156Z,1009.42
2023-01-07T01:50:52.618Z,1009.41
2023-01-07T01:51:25.117Z,1009.40
2023-01-07T01:51:57.668Z,1009.41
2023-01-07T01:52:30.176Z,1009.43
2023-01-07T01:53:02.667Z,1009.43
2023-01-07T01:53:35.158Z,1009.42
2023-01-07T01:54:07.777Z,1009.44
2023-01-07T01:54:40.310Z,1009.43
2023-01-07T01:55:13.388Z,1009.43
2023-01-07T01:55:45.881Z,1009.42
2023-01-07T01:56:18.351Z,1009.44
2023-01-07T01:56:50.844Z,1009.43
2023-01-07T01:57:23.402Z,1009.44
2023-01-07T01:57:55.901Z,1009.41
2023-01-07T01:58:28.471Z,1009.43
2023-01-07T01:59:00.954Z,1009.41
2023-01-07T01:59:33.575Z,1009.40
2023-01-07T02:00:06.072Z,1009.38
2023-01-07T02:00:38.669Z,1009.40
2023-01-07T02:01:11.220Z,1009.40
2023-01-07T02:01:43.861Z,1009.39
2023-01-07T02:02:16.331Z,1009.37
2023-01-07T02:02:48.814Z,1009.39
2023-01-07T02:03:21.249Z,1009.37
2023-01-07T02:03:53.759Z,1009.38
2023-01-07T02:04:26.274Z,1009.35
2023-01-07T02:04:58.812Z,1009.36
2023-01-07T02:05:31.348Z,1009.37
2023-01-07T02:06:03.880Z,1009.38
2023-01-07T02:06:36.372Z,1009.34
2023-01-07T02:07:08.894Z,1009.35
2023-01-07T02:07:41.433Z,1009.34
2023-01-07T02:08:13.962Z,1009.33
2023-01-07T02:08:46.466Z,1009.34
2023-01-07T02:09:19.098Z,1009.34
2023-01-07T02:09:51.579Z,1009.34
2023-01-07T02:10:24.111Z,1009.32
2023-01-07T02:10:56.635Z,1009.32
2023-01-07T02:11:29.156Z,1009.32
2023-01-07T02:12:01.729Z,1009.34
2023-01-07T02:12:34.211Z,1009.33
2023-01-07T02:13:06.750Z,1009.35
2023-01-07T02:13:39.386Z,1009.32
2023-01-07T02:14:11.867Z,1009.30
2023-01-07T02:14:44.383Z,1009.31
2023-01-07T02:15:17.022Z,1009.31
2023-01-07T02:15:49.536Z,1009.30
2023-01-07T02:16:22.093Z,1009.30
2023-01-07T02:16:54.551Z,1009.30
2023-01-07T02:17:27.171Z,1009.29
2023-01-07T02:17:59.719Z,1009.30
2023-01-07T02:18:32.241Z,1009.26
2023-01-07T02:19:04.922Z,1009.28
2023-01-07T02:19:37.656Z,1009.26
2023-01-07T02:20:10.200Z,1009.26
2023-01-07T02:20:42.688Z,1009.24
2023-01-07T02:21:15.189Z,1009.23
2023-01-07T02:21:47.786Z,1009.22
2023-01-07T02:22:20.363Z,1009.20
2023-01-07T02:22:52.911Z,1009.20
2023-01-07T02:23:25.439Z,1009.20
2023-01-07T02:23:57.976Z,1009.19
2023-01-07T02:24:30.501Z,1009.18
2023-01-07T02:25:03.059Z,1009.23
2023-01-07T02:25:35.618Z,1009.19
2023-01-07T02:26:08.149Z,1009.19
2023-01-07T02:26:40.715Z,1009.20
2023-01-07T02:27:13.245Z,1009.16
2023-01-07T02:27:45.750Z,1009.16
2023-01-07T02:28:18.311Z,1009.18
2023-01-07T02:28:50.838Z,1009.19
2023-01-07T02:29:23.285Z,1009.18
2023-01-07T02:29:55.822Z,1009.16
2023-01-07T02:30:28.304Z,1009.18
2023-01-07T02:31:00.798Z,1009.18
2023-01-07T02:31:33.471Z,1009.17
2023-01-07T02:32:05.939Z,1009.16
2023-01-07T02:32:38.439Z,1009.17
2023-01-07T02:33:10.943Z,1009.17
2023-01-07T02:33:43.560Z,1009.18
2023-01-07T02:34:16.099Z,1009.16
2023-01-07T02:34:48.589Z,1009.17
2023-01-07T02:35:21.058Z,1009.17
2023-01-07T02:35:53.593Z,1009.16
2023-01-07T02:36:26.101Z,1009.16
2023-01-07T02:36:58.652Z,1009.12
2023-01-07T02:37:31.172Z,1009.14
2023-01-07T02:38:03.779Z,1009.13
2023-01-07T02:38:36.311Z,1009.11
2023-01-07T02:39:08.873Z,1009.13
2023-01-07T02:39:41.381Z,1009.13
2023-01-07T02:40:13.860Z,1009.13
2023-01-07T02:40:46.356Z,1009.13
2023-01-07T02:41:18.940Z,1009.11
2023-01-07T02:41:51.440Z,1009.11
2023-01-07T02:42:23.973Z,1009.12
2023-01-07T02:42:56.503Z,1009.11
2023-01-07T02:43:28.979Z,1009.09
2023-01-07T02:44:01.461Z,1009.08
2023-01-07T02:44:33.941Z,1009.07
2023-01-07T02:45:06.419Z,1009.08
2023-01-07T02:45:38.910Z,1009.09
2023-01-07T02:46:11.431Z,1009.06
2023-01-07T02:46:43.930Z,1009.05
2023-01-07T02:47:16.436Z,1009.06
2023-01-07T02:47:48.937Z,1009.06
2023-01-07T02:48:21.456Z,1009.03
2023-01-07T02:48:54.033Z,1009.06
2023-01-07T02:49:26.494Z,1009.06
2023-01-07T02:49:59.005Z,1009.03
2023-01-07T02:50:31.503Z,1009.02
2023-01-07T02:51:03.970Z,1009.03
2023-01-07T02:51:36.541Z,1009.02
2023-01-07T02:52:09.011Z,1009.00
2023-01-07T02:52:41.539Z,1008.99
2023-01-07T02:53:14.060Z,1008.98
2023-01-07T02:53:46.558Z,1009.00
2023-01-07T02:54:19.128Z,1008.96
2023-01-07T02:54:51.648Z,1008.98
2023-01-07T02:55:24.156Z,1008.96
2023-01-07T02:55:56.674Z,1008.97
2023-01-07T02:56:29.180Z,1008.99
2023-01-07T02:57:01.726Z,1008.96
2023-01-07T02:57:34.247Z,1008.98
2023-01-07T02:58:06.723Z,1008.96
2023-01-07T02:58:39.301Z,1008.95
2023-01-07T02:59:11.851Z,1008.96
2023-01-07T02:59:44.395Z,1008.98
2023-01-07T03:00:16.923Z,1009.00
2023-01-07T03:00:49.567Z,1008.97
2023-01-07T03:01:22.004Z,1008.96
2023-01-07T03:01:54.510Z,1008.96
2023-01-07T03:02:26.922Z,1008.94
2023-01-07T03:02:59.443Z,1008.93
2023-01-07T03:03:31.899Z,1008.95
2023-01-07T03:04:04.441Z,1008.94
2023-01-07T03:04:36.915Z,1008.93
2023-01-07T03:05:09.405Z,1008.93
2023-01-07T03:05:41.919Z,1008.94
2023-01-07T03:06:14.487Z,1008.93
2023-01-07T03:06:46.954Z,1008.92
2023-01-07T03:07:19.489Z,1008.92
2023-01-07T03:07:52.082Z,1008.90
2023-01-07T03:08:24.515Z,1008.94
2023-01-07T03:08:57.060Z,1008.93
2023-01-07T03:09:29.558Z,1008.93
2023-01-07T03:10:02.136Z,1008.91
2023-01-07T03:10:34.643Z,1008.88
2023-01-07T03:11:07.121Z,1008.89
2023-01-07T03:11:39.660Z,1008.86
2023-01-07T03:12:12.124Z,1008.86
2023-01-07T03:12:44.694Z,1008.86
2023-01-07T03:13:17.196Z,1008.85
2023-01-07T03:13:49.692Z,1008.83
2023-01-07T03:14:22.177Z,1008.84
2023-01-07T03:14:54.665Z,1008.84
2023-01-07T03:15:28.904Z,1008.83
2023-01-07T03:15:59.620Z,1008.82
2023-01-07T03:16:32.159Z,1008.81
2023-01-07T03:17:04.642Z,1008.81
2023-01-07T03:17:37.149Z,1008.81
2023-01-07T03:18:09.645Z,1008.80
2023-01-07T03:18:42.155Z,1008.80
2023-01-07T03:19:14.755Z,1008.81
2023-01-07T03:19:47.234Z,1008.81
2023-01-07T03:20:19.763Z,1008.78
2023-01-07T03:20:52.229Z,1008.80
2023-01-07T03:21:24.715Z,1008.79
2023-01-07T03:21:57.220Z,1008.80
2023-01-07T03:22:29.661Z,1008.79
2023-01-07T03:23:02.219Z,1008.79
2023-01-07T03:23:34.696Z,1008.79
2023-01-07T03:24:07.218Z,1008.81
2023-01-07T03:24:39.692Z,1008.80
2023-01-07T03:25:12.175Z,1008.80
2023-01-07T03:25:44.700Z,1008.79
2023-01-07T03:26:17.197Z,1008.80
2023-01-07T03:26:49.784Z,1008.80
2023-01-07T03:27:22.286Z,1008.78
2023-01-07T03:27:54.863Z,1008.78
2023-01-07T03:28:27.404Z,1008.75
2023-01-07T03:28:59.916Z,1008.78
2023-01-07T03:29:32.423Z,1008.75
2023-01-07T03:30:04.995Z,1008.75
2023-01-07T03:30:37.478Z,1008.75
2023-01-07T03:31:09.993Z,1008.72
2023-01-07T03:31:42.547Z,1008.69
2023-01-07T03:32:15.046Z,1008.67
2023-01-07T03:32:47.578Z,1008.69
2023-01-07T03:33:20.037Z,1008.67
2023-01-07T03:33:52.579Z,1008.66
2023-01-07T03:34:25.109Z,1008.73
2023-01-07T03:34:57.613Z,1008.66
2023-01-07T03:35:30.151Z,1008.66
2023-01-07T03:36:02.705Z,1008.65
2023-01-07T03:36:35.256Z,1008.66
2023-01-07T03:37:07.766Z,1008.63
2023-01-07T03:37:40.292Z,1008.64
2023-01-07T03:38:12.774Z,1008.64
2023-01-07T03:38:45.284Z,1008.62
2023-01-07T03:39:17.899Z,1008.63
2023-01-07T03:39:50.439Z,1008.62
2023-01-07T03:40:22.989Z,1008.62
2023-01-07T03:40:55.438Z,1008.64
2023-01-07T03:41:28.032Z,1008.62
2023-01-07T03:42:00.600Z,1008.61
2023-01-07T03:42:33.122Z,1008.61
2023-01-07T03:43:05.650Z,1008.61
2023-01-07T03:43:38.159Z,1008.60
2023-01-07T03:44:10.639Z,1008.62
2023-01-07T03:44:43.216Z,1008.62
2023-01-07T03:45:15.768Z,1008.60
2023-01-07T03:45:48.332Z,1008.59
2023-01-07T03:46:20.789Z,1008.60
2023-01-07T03:46:53.489Z,1008.59
2023-01-07T03:47:26.009Z,1008.59
2023-01-07T03:47:58.502Z,1008.62
2023-01-07T03:48:30.984Z,1008.61
2023-01-07T03:49:03.491Z,1008.63
2023-01-07T03:49:36.898Z,1008.63
2023-01-07T03:50:08.559Z,1008.60
2023-01-07T03:50:41.118Z,1008.59
2023-01-07T03:51:13.667Z,1008.59
2023-01-07T03:51:46.194Z,1008.58
2023-01-07T03:52:18.726Z,1008.59
2023-01-07T03:52:51.298Z,1008.60
2023-01-07T03:53:23.881Z,1008.59
2023-01-07T03:53:57.296Z,1008.58
2023-01-07T03:54:29.824Z,1008.58
2023-01-07T03:55:02.323Z,1008.56
2023-01-07T03:55:34.866Z,1008.53
2023-01-07T03:56:07.386Z,1008.53
2023-01-07T03:56:39.963Z,1008.52
2023-01-07T03:57:12.584Z,1008.55
2023-01-07T03:57:45.086Z,1008.56
2023-01-07T03:58:17.553Z,1008.54
2023-01-07T03:58:50.108Z,1008.56
2023-01-07T03:59:22.626Z,1008.53
2023-01-07T03:59:55.120Z,1008.53
2023-01-07T04:00:27.645Z,1008.53
2023-01-07T04:01:00.323Z,1008.51
2023-01-07T04:01:32.797Z,1008.50
2023-01-07T04:02:05.323Z,1008.50
2023-01-07T04:02:37.744Z,1008.47
2023-01-07T04:03:10.295Z,1008.46
2023-01-07T04:03:42.900Z,1008.44
2023-01-07T04:04:15.472Z,1008.47
2023-01-07T04:04:48.032Z,1008.46
2023-01-07T04:05:20.499Z,1008.42
2023-01-07T04:05:53.016Z,1008.43
2023-01-07T04:06:25.522Z,1008.43
2023-01-07T04:06:57.980Z,1008.40
2023-01-07T04:07:30.540Z,1008.39
2023-01-07T04:08:03.057Z,1008.38
2023-01-07T04:08:35.577Z,1008.40
2023-01-07T04:09:08.078Z,1008.41
2023-01-07T04:09:40.591Z,1008.36
2023-01-07T04:10:13.108Z,1008.33
2023-01-07T04:10:45.634Z,1008.33
2023-01-07T04:11:18.174Z,1008.35
2023-01-07T04:11:50.660Z,1008.32
2023-01-07T04:12:23.115Z,1008.30
2023-01-07T04:12:55.589Z,1008.33
2023-01-07T04:13:28.099Z,1008.33
2023-01-07T04:14:00.698Z,1008.32
2023-01-07T04:14:33.128Z,1008.31
2023-01-07T04:15:05.647Z,1008.30
2023-01-07T04:15:38.210Z,1008.30
2023-01-07T04:16:10.662Z,1008.33
2023-01-07T04:16:43.280Z,1008.30
2023-01-07T04:17:15.667Z,1008.31
2023-01-07T04:17:48.175Z,1008.31
2023-01-07T04:18:20.729Z,1008.30
2023-01-07T04:18:53.196Z,1008.26
2023-01-07T04:19:25.691Z,1008.27
2023-01-07T04:19:58.221Z,1008.24
2023-01-07T04:20:30.683Z,1008.27
2023-01-07T04:21:03.195Z,1008.26
2023-01-07T04:21:35.675Z,1008.27
2023-01-07T04:22:08.191Z,1008.25
2023-01-07T04:22:40.702Z,1008.26
2023-01-07T04:23:13.260Z,1008.24
2023-01-07T04:23:45.781Z,1008.22
2023-01-07T04:24:18.488Z,1008.25
2023-01-07T04:24:50.989Z,1008.23
2023-01-07T04:25:23.545Z,1008.21
2023-01-07T04:25:56.068Z,1008.22
2023-01-07T04:26:28.568Z,1008.21
2023-01-07T04:27:01.060Z,1008.23
2023-01-07T04:27:33.605Z,1008.24
2023-01-07T04:28:06.095Z,1008.22
2023-01-07T04:28:38.620Z,1008.22
2023-01-07T04:29:11.136Z,1008.22
2023-01-07T04:29:43.695Z,1008.22
2023-01-07T04:30:16.196Z,1008.19
2023-01-07T04:30:48.786Z,1008.20
2023-01-07T04:31:21.220Z,1008.20
2023-01-07T04:31:53.884Z,1008.16
2023-01-07T04:32:26.349Z,1008.17
2023-01-07T04:32:58.862Z,1008.18
2023-01-07T04:33:31.398Z,1008.19
2023-01-07T04:34:04.003Z,1008.19
2023-01-07T04:34:36.545Z,1008.16
2023-01-07T04:35:09.053Z,1008.15
2023-01-07T04:35:41.613Z,1008.13
2023-01-07T04:36:14.143Z,1008.16
2023-01-07T04:36:46.672Z,1008.15
2023-01-07T04:37:19.213Z,1008.15
2023-01-07T04:37:51.729Z,1008.14
2023-01-07T04:38:24.253Z,1008.13
2023-01-07T04:38:56.791Z,1008.14
2023-01-07T04:39:29.292Z,1008.13
2023-01-07T04:40:01.798Z,1008.13
2023-01-07T04:40:34.325Z,1008.14
2023-01-07T04:41:06.850Z,1008.09
2023-01-07T04:41:39.383Z,1008.06
2023-01-07T04:42:11.869Z,1008.08
2023-01-07T04:42:44.362Z,1008.11
2023-01-07T04:43:16.915Z,1008.09
2023-01-07T04:43:49.478Z,1008.09
2023-01-07T04:44:22.006Z,1008.08
2023-01-07T04:44:54.468Z,1008.08
2023-01-07T04:45:26.972Z,1008.06
2023-01-07T04:45:59.497Z,1008.06
2023-01-07T04:46:32.080Z,1008.05
2023-01-07T04:47:04.586Z,1008.03
2023-01-07T04:47:37.150Z,1008.02
2023-01-07T04:48:09.697Z,1008.00
2023-01-07T04:48:42.226Z,1007.99
2023-01-07T04:49:14.734Z,1008.00
2023-01-07T04:49:47.218Z,1008.00
2023-01-07T04:50:19.743Z,1007.99
2023-01-07T04:50:52.280Z,1008.01
2023-01-07T04:51:24.822Z,1007.99
2023-01-07T04:51:58.025Z,1007.98
2023-01-07T04:52:30.557Z,1007.96
2023-01-07T04:53:03.118Z,1007.93
2023-01-07T04:53:35.661Z,1007.97
2023-01-07T04:54:08.185Z,1007.95
2023-01-07T04:54:40.734Z,1007.96
2023-01-07T04:55:13.221Z,1007.95
2023-01-07T04:55:46.480Z,1007.95
2023-01-07T04:56:18.242Z,1007.91
2023-01-07T04:56:50.702Z,1007.92
2023-01-07T04:57:23.240Z,1007.88
2023-01-07T04:57:55.755Z,1007.87
2023-01-07T04:58:28.246Z,1007.90
2023-01-07T04:59:00.760Z,1007.86
2023-01-07T04:59:33.260Z,1007.86
2023-01-07T05:00:05.756Z,1007.87
2023-01-07T05:00:38.284Z,1007.86
2023-01-07T05:01:10.958Z,1007.85
2023-01-07T05:01:43.401Z,1007.86
2023-01-07T05:02:15.855Z,1007.86
2023-01-07T05:02:48.385Z,1007.86
2023-01-07T05:03:20.885Z,1007.84
2023-01-07T05:03:53.391Z,1007.85
2023-01-07T05:04:25.962Z,1007.83
2023-01-07T05:04:58.438Z,1007.81
2023-01-07T05:05:30.940Z,1007.81
2023-01-07T05:06:03.481Z,1007.84
2023-01-07T05:06:35.983Z,1007.84
2023-01-07T05:07:08.502Z,1007.86
2023-01-07T05:07:40.996Z,1007.79
2023-01-07T05:08:13.531Z,1007.79
2023-01-07T05:08:46.059Z,1007.78
2023-01-07T05:09:18.569Z,1007.77
2023-01-07T05:09:51.165Z,1007.77
2023-01-07T05:10:23.771Z,1007.78
2023-01-07T05:10:56.278Z,1007.76
2023-01-07T05:11:29.529Z,1007.76
2023-01-07T05:12:02.006Z,1007.74
2023-01-07T05:12:34.486Z,1007.75
2023-01-07T05:13:07.262Z,1007.74
2023-01-07T05:13:39.485Z,1007.72
2023-01-07T05:14:12.020Z,1007.74
2023-01-07T05:14:44.581Z,1007.70
2023-01-07T05:15:24.160Z,1007.70
2023-01-07T05:15:56.976Z,1007.70
2023-01-07T05:16:29.501Z,1007.71
2023-01-07T05:17:02.028Z,1007.70
2023-01-07T05:17:34.449Z,1007.69
2023-01-07T05:18:07.051Z,1007.70
2023-01-07T05:18:39.575Z,1007.68
2023-01-07T05:19:12.074Z,1007.69
2023-01-07T05:19:44.617Z,1007.70
2023-01-07T05:20:17.120Z,1007.69
2023-01-07T05:20:49.589Z,1007.67
2023-01-07T05:21:22.077Z,1007.67
2023-01-07T05:21:54.567Z,1007.66
2023-01-07T05:22:27.034Z,1007.67
2023-01-07T05:22:59.550Z,1007.70
2023-01-07T05:23:32.064Z,1007.65
2023-01-07T05:24:04.595Z,1007.67
2023-01-07T05:24:37.104Z,1007.70
2023-01-07T05:25:09.606Z,1007.64
2023-01-07T05:25:42.107Z,1007.65
2023-01-07T05:26:14.597Z,1007.63
2023-01-07T05:26:47.192Z,1007.62
2023-01-07T05:27:19.708Z,1007.60
2023-01-07T05:27:52.211Z,1007.61
2023-01-07T05:28:24.739Z,1007.59
2023-01-07T05:28:57.240Z,1007.59
2023-01-07T05:29:29.731Z,1007.60
2023-01-07T05:30:02.225Z,1007.59
2023-01-07T05:30:34.775Z,1007.60
2023-01-07T05:31:07.249Z,1007.60
2023-01-07T05:31:39.709Z,1007.60
2023-01-07T05:32:12.214Z,1007.57
2023-01-07T05:32:44.696Z,1007.61
2023-01-07T05:33:17.184Z,1007.60
2023-01-07T05:33:49.672Z,1007.59
2023-01-07T05:34:22.161Z,1007.58
2023-01-07T05:34:54.717Z,1007.58
2023-01-07T05:35:27.225Z,1007.58
2023-01-07T05:35:59.716Z,1007.57
2023-01-07T05:36:32.232Z,1007.56
2023-01-07T05:37:04.721Z,1007.57
2023-01-07T05:37:37.182Z,1007.56
2023-01-07T05:38:09.692Z,1007.54
2023-01-07T05:38:42.253Z,1007.53
2023-01-07T05:39:14.744Z,1007.53
2023-01-07T05:39:47.255Z,1007.52
2023-01-07T05:40:19.855Z,1007.50
2023-01-07T05:40:52.370Z,1007.52
2023-01-07T05:41:24.883Z,1007.51
2023-01-07T05:41:57.479Z,1007.51
2023-01-07T05:42:30.041Z,1007.52
2023-01-07T05:43:02.528Z,1007.49
2023-01-07T05:43:35.051Z,1007.53
2023-01-07T05:44:07.559Z,1007.58
2023-01-07T05:44:40.063Z,1007.54
2023-01-07T05:45:12.613Z,1007.54
2023-01-07T05:45:45.125Z,1007.53
2023-01-07T05:46:17.676Z,1007.56
2023-01-07T05:46:50.157Z,1007.54
2023-01-07T05:47:22.655Z,1007.52
2023-01-07T05:47:55.203Z,1007.52
2023-01-07T05:48:27.697Z,1007.52
2023-01-07T05:49:00.197Z,1007.50
2023-01-07T05:49:32.761Z,1007.51
2023-01-07T05:50:05.273Z,1007.49
2023-01-07T05:50:37.752Z,1007.50
2023-01-07T05:51:10.237Z,1007.50
2023-01-07T05:51:42.784Z,1007.52
2023-01-07T05:52:15.282Z,1007.50
2023-01-07T05:52:47.763Z,1007.51
2023-01-07T05:53:20.211Z,1007.52
2023-01-07T05:53:52.748Z,1007.50
2023-01-07T05:54:25.187Z,1007.50
2023-01-07T05:54:57.680Z,1007.48
2023-01-07T05:55:30.268Z,1007.48
2023-01-07T05:56:02.717Z,1007.48
2023-01-07T05:56:35.345Z,1007.49
2023-01-07T05:57:07.825Z,1007.47
2023-01-07T05:57:40.399Z,1007.46
2023-01-07T05:58:12.901Z,1007.45
2023-01-07T05:58:45.401Z,1007.46
2023-01-07T05:59:17.890Z,1007.47
2023-01-07T05:59:50.413Z,1007.42
2023-01-07T06:00:22.924Z,1007.43
2023-01-07T06:00:55.496Z,1007.42
2023-01-07T06:01:28.024Z,1007.39
2023-01-07T06:02:00.458Z,1007.40
2023-01-07T06:02:32.961Z,1007.40
2023-01-07T06:03:06.248Z,1007.39
2023-01-07T06:03:38.792Z,1007.40
2023-01-07T06:04:11.223Z,1007.36
2023-01-07T06:04:43.780Z,1007.38
2023-01-07T06:05:16.216Z,1007.41
2023-01-07T06:05:48.726Z,1007.41
2023-01-07T06:06:21.182Z,1007.41
2023-01-07T06:06:53.717Z,1007.38
2023-01-07T06:07:26.291Z,1007.39
2023-01-07T06:07:58.823Z,1007.37
2023-01-07T06:08:31.329Z,1007.36
2023-01-07T06:09:03.911Z,1007.40
2023-01-07T06:09:36.436Z,1007.33
2023-01-07T06:10:08.933Z,1007.33
2023-01-07T06:10:41.512Z,1007.34
2023-01-07T06:11:14.051Z,1007.33
2023-01-07T06:11:46.547Z,1007.35
2023-01-07T06:12:19.068Z,1007.30
2023-01-07T06:12:51.558Z,1007.31
2023-01-07T06:13:24.049Z,1007.32
2023-01-07T06:13:56.569Z,1007.31
2023-01-07T06:14:29.047Z,1007.31
2023-01-07T06:15:01.558Z,1007.34
2023-01-07T06:15:34.142Z,1007.32
2023-01-07T06:16:06.645Z,1007.31
2023-01-07T06:16:39.080Z,1007.31
2023-01-07T06:17:11.555Z,1007.31
2023-01-07T06:17:44.041Z,1007.33
2023-01-07T06:18:16.522Z,1007.30
2023-01-07T06:18:49.013Z,1007.31
2023-01-07T06:19:21.510Z,1007.31
2023-01-07T06:19:54.018Z,1007.30
2023-01-07T06:20:26.539Z,1007.32
2023-01-07T06:20:59.100Z,1007.29
2023-01-07T06:21:31.564Z,1007.33
2023-01-07T06:22:04.047Z,1007.28
2023-01-07T06:22:36.557Z,1007.25
2023-01-07T06:23:09.051Z,1007.25
2023-01-07T06:23:41.644Z,1007.27
2023-01-07T06:24:14.162Z,1007.25
2023-01-07T06:24:46.652Z,1007.25
2023-01-07T06:25:19.191Z,1007.24
2023-01-07T06:25:51.681Z,1007.28
2023-01-07T06:26:24.591Z,1007.23
2023-01-07T06:26:57.084Z,1007.23
2023-01-07T06:27:29.575Z,1007.22
2023-01-07T06:28:02.105Z,1007.26
2023-01-07T06:28:34.628Z,1007.22
2023-01-07T06:29:07.099Z,1007.20
2023-01-07T06:29:39.646Z,1007.23
2023-01-07T06:30:12.127Z,1007.24
2023-01-07T06:30:44.665Z,1007.22
2023-01-07T06:31:17.170Z,1007.22
2023-01-07T06:31:49.658Z,1007.22
2023-01-07T06:32:22.155Z,1007.25
2023-01-07T06:32:54.656Z,1007.25
2023-01-07T06:33:27.114Z,1007.26